MSC Carolina — 3ECV5 — position and weather

sailwx.info

Track history (hours):
 
Tides and Currents Weather Stations Pressure Air Temp Water Temp Dewpoint Dewpoint Depression Visibility Wind Speed Wind Dir Waves Ship Positions

MSC Carolina

Last reported at 2016-Jul-01 11:26 UTC. Time now 2016-Jul-01 11:47 UTC.
Position N 01°11' E 103°45'.

Length 275 m; draft 7.2 m.

Type: Ship (hazmat cat B). MMSI: 371475000.

Date/timePositionNaut miles runAvg speedWind from/ knotsBaromVisibWave heightAir tempDewpointWater temp
2016-Jul-01 11:26N 01°11' E 103°45'0 0.0
2016-Jul-01 10:32N 01°11' E 103°45'0 0.0
2016-Jul-01 09:32N 01°11' E 103°45'0 0.1
2016-Jul-01 08:29N 01°11' E 103°45'0 0.0
2016-Jul-01 07:23N 01°11' E 103°45'0 0.0
2016-Jul-01 04:14N 01°11' E 103°45'0 0.1
2016-Jul-01 03:32N 01°11' E 103°45'0 0.0
2016-Jul-01 02:32N 01°11' E 103°45'0 0.0
2016-Jul-01 01:26N 01°11' E 103°45'0 0.0
2016-Jul-01 00:26N 01°11' E 103°45'0 0.0
2016-Jun-30 23:29N 01°11' E 103°45'3 3.3
2016-Jun-30 22:33N 01°12' E 103°48'5 4.5
2016-Jun-30 21:27N 01°17' E 103°45'0 0.0
2016-Jun-30 20:33N 01°17' E 103°45'0 0.0
2016-Jun-30 19:30N 01°17' E 103°45'0 0.0
2016-Jun-30 17:33N 01°17' E 103°45'0 0.0
2016-Jun-30 16:27N 01°17' E 103°45'0 0.0
2016-Jun-30 15:30N 01°17' E 103°45'0 0.0
2016-Jun-30 14:30N 01°17' E 103°45'0 0.0
2016-Jun-30 13:32N 01°17' E 103°45'0 0.0
2016-Jun-30 12:26N 01°17' E 103°45'0 0.0
2016-Jun-30 11:29N 01°17' E 103°45'0 0.0
2016-Jun-30 10:29N 01°17' E 103°45'0 0.0
2016-Jun-30 09:29N 01°17' E 103°45'0 0.0
2016-Jun-30 08:29N 01°17' E 103°45'0 0.4
2016-Jun-30 07:33N 01°16' E 103°45'6 6.3
2016-Jun-30 06:33N 01°12' E 103°50'7 7.1
2016-Jun-30 05:33N 01°15' E 103°57'9 8.5
2016-Jun-30 04:33N 01°16' E 104°05'  
2016-Jun-24 10:33S 32°03' E 115°44'1 0.7
2016-Jun-24 09:25S 32°03' E 115°45'0 0.0
2016-Jun-24 08:31S 32°03' E 115°45'0 0.0
2016-Jun-24 07:31S 32°03' E 115°45'0 0.0
2016-Jun-24 04:31S 32°03' E 115°45'0 0.0
2016-Jun-24 03:28S 32°03' E 115°45'0 0.0
2016-Jun-24 02:31S 32°03' E 115°45'0 0.0
2016-Jun-24 01:31S 32°03' E 115°45'0 0.0
2016-Jun-24 00:31S 32°03' E 115°45'0 0.0
2016-Jun-23 23:31S 32°03' E 115°45'0 0.0
2016-Jun-23 22:31S 32°03' E 115°45'0 0.0
2016-Jun-23 21:31S 32°03' E 115°45'0 0.0
2016-Jun-23 20:25S 32°03' E 115°45'0 0.0
2016-Jun-23 19:31S 32°03' E 115°45'0 0.0
2016-Jun-23 18:31S 32°03' E 115°45'0 0.0
2016-Jun-23 17:31S 32°03' E 115°45'0 0.0
2016-Jun-23 16:31S 32°03' E 115°45'0 0.0
2016-Jun-23 15:31S 32°03' E 115°45'0 0.0
2016-Jun-23 14:31S 32°03' E 115°45'0 0.0
2016-Jun-23 13:31S 32°03' E 115°45'0 0.0
2016-Jun-23 12:31S 32°03' E 115°45'0 0.0
2016-Jun-23 11:31S 32°03' E 115°45'0 0.0
2016-Jun-23 10:31S 32°03' E 115°45'0 0.0
2016-Jun-23 09:10S 32°03' E 115°45'0 0.0
2016-Jun-23 08:31S 32°03' E 115°45'0 0.0
2016-Jun-23 07:13S 32°03' E 115°45'0 0.0
2016-Jun-23 05:25S 32°03' E 115°45'0 0.0
2016-Jun-23 04:28S 32°03' E 115°45'0 0.0
2016-Jun-23 03:28S 32°03' E 115°45'  
Track history (hours):
 
Tides and Currents Weather Stations Pressure Air Temp Water Temp Dewpoint Dewpoint Depression Visibility Wind Speed Wind Dir Waves Ship Positions

MSC Carolina

Last reported at 2016-Jul-01 11:26 UTC. Time now 2016-Jul-01 11:47 UTC.
Position N 01°11' E 103°45'.

Length 275 m; draft 7.2 m.

Type: Ship (hazmat cat B). MMSI: 371475000.

Date/timePositionNaut miles runAvg speedWind from/ knotsBaromVisibWave heightAir tempDewpointWater temp
2016-Jul-01 11:26N 01°11' E 103°45'0 0.0
2016-Jul-01 10:32N 01°11' E 103°45'0 0.0
2016-Jul-01 09:32N 01°11' E 103°45'0 0.1
2016-Jul-01 08:29N 01°11' E 103°45'0 0.0
2016-Jul-01 07:23N 01°11' E 103°45'0 0.0
2016-Jul-01 04:14N 01°11' E 103°45'0 0.1
2016-Jul-01 03:32N 01°11' E 103°45'0 0.0
2016-Jul-01 02:32N 01°11' E 103°45'0 0.0
2016-Jul-01 01:26N 01°11' E 103°45'0 0.0
2016-Jul-01 00:26N 01°11' E 103°45'0 0.0
2016-Jun-30 23:29N 01°11' E 103°45'3 3.3
2016-Jun-30 22:33N 01°12' E 103°48'5 4.5
2016-Jun-30 21:27N 01°17' E 103°45'0 0.0
2016-Jun-30 20:33N 01°17' E 103°45'0 0.0
2016-Jun-30 19:30N 01°17' E 103°45'0 0.0
2016-Jun-30 17:33N 01°17' E 103°45'0 0.0
2016-Jun-30 16:27N 01°17' E 103°45'0 0.0
2016-Jun-30 15:30N 01°17' E 103°45'0 0.0
2016-Jun-30 14:30N 01°17' E 103°45'0 0.0
2016-Jun-30 13:32N 01°17' E 103°45'0 0.0
2016-Jun-30 12:26N 01°17' E 103°45'0 0.0
2016-Jun-30 11:29N 01°17' E 103°45'0 0.0
2016-Jun-30 10:29N 01°17' E 103°45'0 0.0
2016-Jun-30 09:29N 01°17' E 103°45'0 0.0
2016-Jun-30 08:29N 01°17' E 103°45'0 0.4
2016-Jun-30 07:33N 01°16' E 103°45'6 6.3
2016-Jun-30 06:33N 01°12' E 103°50'7 7.1
2016-Jun-30 05:33N 01°15' E 103°57'9 8.5
2016-Jun-30 04:33N 01°16' E 104°05'  
2016-Jun-24 10:33S 32°03' E 115°44'1 0.7
2016-Jun-24 09:25S 32°03' E 115°45'0 0.0
2016-Jun-24 08:31S 32°03' E 115°45'0 0.0
2016-Jun-24 07:31S 32°03' E 115°45'0 0.0
2016-Jun-24 04:31S 32°03' E 115°45'0 0.0
2016-Jun-24 03:28S 32°03' E 115°45'0 0.0
2016-Jun-24 02:31S 32°03' E 115°45'0 0.0
2016-Jun-24 01:31S 32°03' E 115°45'0 0.0
2016-Jun-24 00:31S 32°03' E 115°45'0 0.0
2016-Jun-23 23:31S 32°03' E 115°45'0 0.0
2016-Jun-23 22:31S 32°03' E 115°45'0 0.0
2016-Jun-23 21:31S 32°03' E 115°45'0 0.0
2016-Jun-23 20:25S 32°03' E 115°45'0 0.0
2016-Jun-23 19:31S 32°03' E 115°45'0 0.0
2016-Jun-23 18:31S 32°03' E 115°45'0 0.0
2016-Jun-23 17:31S 32°03' E 115°45'0 0.0
2016-Jun-23 16:31S 32°03' E 115°45'0 0.0
2016-Jun-23 15:31S 32°03' E 115°45'0 0.0
2016-Jun-23 14:31S 32°03' E 115°45'0 0.0
2016-Jun-23 13:31S 32°03' E 115°45'0 0.0
2016-Jun-23 12:31S 32°03' E 115°45'0 0.0
2016-Jun-23 11:31S 32°03' E 115°45'0 0.0
2016-Jun-23 10:31S 32°03' E 115°45'0 0.0
2016-Jun-23 09:10S 32°03' E 115°45'0 0.0
2016-Jun-23 08:31S 32°03' E 115°45'0 0.0
2016-Jun-23 07:13S 32°03' E 115°45'0 0.0
2016-Jun-23 05:25S 32°03' E 115°45'0 0.0
2016-Jun-23 04:28S 32°03' E 115°45'0 0.0
2016-Jun-23 03:28S 32°03' E 115°45'  

Dump ship's entire track history